首页
METAR-TAF:

METAR-TAF

机场 :

伊萬諾-弗蘭科夫斯克國際機場

伊万诺-弗兰科夫斯克, 乌克兰

纬度: 48-53-03N, 经度: 024-41-10E, 海拔: 280米

当前天气观测

该预报发布于1小时和40分钟前的20:00 UTC
风速2节,风向
温度 3°C
湿度 100%
气压 1002 hPa
能見度: 0200
多云层高于2000英尺
多云层高于10000英尺

METAR: UKLI 142000Z 01001MPS 0300 0200E FG BKN020 BKN100 03/03 Q1002 R28/090070 NOSIG

时间: 23:40 (21:40 UTC)

预报

该预报发布于4小时和36分钟前的17:04 UTC
预报有效从14日的 18点(UTC)到 15日的 03点(UTC)
风速6节,风向南转南东
能見度: 3000
多云层高于400英尺
轻雾
短暂存在
从 14日的 18点(UTC)到 14日的 24点(UTC)
风速2节,风向多变
能見度: 0500
多云层高于200英尺
多云层高于1000英尺, 积雨云.
小阵雨, 雾

TAF: UKLI 141704Z 1418/1503 16003MPS 3000 BR BKN004 TX03/1418Z TN01/1424Z TEMPO 1418/1424 VRB01MPS 0500 -SHRA FG BKN002 BKN010CB

超过4000个机场的气象观测和天气预报(METAR&TAF报告)。

可查询的气象台以黄色和红色小点在地图上表示。

将鼠标移到小点上方,可查看气象台名称。

然后点击查看天气观测和预报。

如需切换地图:点击带黑十字的绿色按钮放大地图;点击带横线的绿色按钮缩小地图;或者点击绿色箭头查看邻近地区的地图。


METAR-TAF: